sensor_id;sensor_type;location;lat;lon;timestamp;pressure;altitude;pressure_sealevel;temperature;humidity
54870;BME280;40756;-37.950;145.008;2024-02-28T00:00:10;100952.64;;;28.82;33.45
54870;BME280;40756;-37.950;145.008;2024-02-28T00:02:40;100957.03;;;28.37;33.37
54870;BME280;40756;-37.950;145.008;2024-02-28T00:05:10;100958.24;;;28.57;32.70
54870;BME280;40756;-37.950;145.008;2024-02-28T00:07:39;100957.61;;;28.27;32.90
54870;BME280;40756;-37.950;145.008;2024-02-28T00:10:09;100957.56;;;28.81;33.36
54870;BME280;40756;-37.950;145.008;2024-02-28T00:12:40;100958.04;;;28.70;34.49
54870;BME280;40756;-37.950;145.008;2024-02-28T00:15:10;100954.14;;;28.57;35.11
54870;BME280;40756;-37.950;145.008;2024-02-28T00:17:40;100949.27;;;28.67;34.87
54870;BME280;40756;-37.950;145.008;2024-02-28T00:20:11;100943.47;;;28.83;35.52
54870;BME280;40756;-37.950;145.008;2024-02-28T00:22:41;100941.18;;;28.99;33.39
54870;BME280;40756;-37.950;145.008;2024-02-28T00:25:10;100933.57;;;29.19;32.84
54870;BME280;40756;-37.950;145.008;2024-02-28T00:27:39;100930.41;;;29.44;33.25
54870;BME280;40756;-37.950;145.008;2024-02-28T00:30:09;100926.37;;;29.12;32.90
54870;BME280;40756;-37.950;145.008;2024-02-28T00:32:39;100923.07;;;29.67;32.83
54870;BME280;40756;-37.950;145.008;2024-02-28T00:35:08;100916.48;;;29.26;32.93
54870;BME280;40756;-37.950;145.008;2024-02-28T00:37:38;100913.48;;;29.74;33.40
54870;BME280;40756;-37.950;145.008;2024-02-28T00:40:09;100905.64;;;30.11;33.48
54870;BME280;40756;-37.950;145.008;2024-02-28T00:42:39;100903.32;;;29.65;33.28
54870;BME280;40756;-37.950;145.008;2024-02-28T00:45:09;100901.12;;;29.83;32.20
54870;BME280;40756;-37.950;145.008;2024-02-28T00:47:39;100899.20;;;30.09;31.72
54870;BME280;40756;-37.950;145.008;2024-02-28T00:50:09;100894.17;;;30.12;32.26
54870;BME280;40756;-37.950;145.008;2024-02-28T00:52:38;100890.01;;;30.32;32.07
54870;BME280;40756;-37.950;145.008;2024-02-28T00:55:08;100883.52;;;30.26;31.58
54870;BME280;40756;-37.950;145.008;2024-02-28T00:57:38;100880.31;;;30.33;30.80
54870;BME280;40756;-37.950;145.008;2024-02-28T01:00:08;100874.31;;;30.03;32.06
54870;BME280;40756;-37.950;145.008;2024-02-28T01:02:39;100877.18;;;30.21;31.26
54870;BME280;40756;-37.950;145.008;2024-02-28T01:05:09;100874.34;;;30.54;31.44
54870;BME280;40756;-37.950;145.008;2024-02-28T01:07:38;100876.95;;;30.54;31.22
54870;BME280;40756;-37.950;145.008;2024-02-28T01:10:09;100873.65;;;30.37;30.87
54870;BME280;40756;-37.950;145.008;2024-02-28T01:12:38;100876.87;;;30.34;31.74
54870;BME280;40756;-37.950;145.008;2024-02-28T01:15:08;100869.96;;;30.86;30.62
54870;BME280;40756;-37.950;145.008;2024-02-28T01:17:37;100868.17;;;30.83;29.51
54870;BME280;40756;-37.950;145.008;2024-02-28T01:20:08;100867.59;;;30.65;30.90
54870;BME280;40756;-37.950;145.008;2024-02-28T01:22:38;100866.23;;;30.89;30.41
54870;BME280;40756;-37.950;145.008;2024-02-28T01:25:08;100860.88;;;30.65;30.85
54870;BME280;40756;-37.950;145.008;2024-02-28T01:27:37;100863.37;;;31.24;30.21
54870;BME280;40756;-37.950;145.008;2024-02-28T01:30:07;100863.15;;;30.90;30.14
54870;BME280;40756;-37.950;145.008;2024-02-28T01:32:37;100853.47;;;30.66;30.81
54870;BME280;40756;-37.950;145.008;2024-02-28T01:35:09;100850.16;;;30.65;30.39
54870;BME280;40756;-37.950;145.008;2024-02-28T01:37:38;100846.46;;;30.30;30.46
54870;BME280;40756;-37.950;145.008;2024-02-28T01:40:09;100840.52;;;30.33;30.43
54870;BME280;40756;-37.950;145.008;2024-02-28T01:42:39;100839.60;;;30.42;30.20
54870;BME280;40756;-37.950;145.008;2024-02-28T01:45:09;100840.46;;;30.60;30.52
54870;BME280;40756;-37.950;145.008;2024-02-28T01:47:41;100837.23;;;30.55;30.44
54870;BME280;40756;-37.950;145.008;2024-02-28T01:50:12;100831.37;;;29.92;30.83
54870;BME280;40756;-37.950;145.008;2024-02-28T01:52:42;100827.46;;;29.78;31.75
54870;BME280;40756;-37.950;145.008;2024-02-28T01:55:12;100825.69;;;30.03;30.84
54870;BME280;40756;-37.950;145.008;2024-02-28T01:57:41;100826.06;;;29.99;31.27
54870;BME280;40756;-37.950;145.008;2024-02-28T02:00:12;100837.69;;;30.27;30.78
54870;BME280;40756;-37.950;145.008;2024-02-28T02:02:42;100846.78;;;30.42;31.49
54870;BME280;40756;-37.950;145.008;2024-02-28T02:05:12;100855.82;;;30.41;32.59
54870;BME280;40756;-37.950;145.008;2024-02-28T02:07:41;100860.12;;;30.31;33.14
54870;BME280;40756;-37.950;145.008;2024-02-28T02:10:10;100859.75;;;30.39;34.85
54870;BME280;40756;-37.950;145.008;2024-02-28T02:12:39;100861.70;;;30.05;35.69
54870;BME280;40756;-37.950;145.008;2024-02-28T02:15:09;100866.84;;;30.30;36.97
54870;BME280;40756;-37.950;145.008;2024-02-28T02:17:38;100857.54;;;30.10;37.39
54870;BME280;40756;-37.950;145.008;2024-02-28T02:20:11;100852.35;;;30.03;37.59
54870;BME280;40756;-37.950;145.008;2024-02-28T02:22:44;100838.26;;;29.73;38.05
54870;BME280;40756;-37.950;145.008;2024-02-28T02:25:14;100828.77;;;29.58;37.54
54870;BME280;40756;-37.950;145.008;2024-02-28T02:27:43;100823.67;;;29.37;37.24
54870;BME280;40756;-37.950;145.008;2024-02-28T02:30:13;100817.80;;;29.72;37.72
54870;BME280;40756;-37.950;145.008;2024-02-28T02:32:43;100802.98;;;28.98;37.36
54870;BME280;40756;-37.950;145.008;2024-02-28T02:35:12;100799.29;;;29.28;37.26
54870;BME280;40756;-37.950;145.008;2024-02-28T02:37:45;100800.37;;;29.31;38.04
54870;BME280;40756;-37.950;145.008;2024-02-28T02:40:14;100809.39;;;29.39;38.28
54870;BME280;40756;-37.950;145.008;2024-02-28T02:42:44;100818.22;;;29.74;37.99
54870;BME280;40756;-37.950;145.008;2024-02-28T02:45:14;100825.71;;;29.49;38.42
54870;BME280;40756;-37.950;145.008;2024-02-28T02:47:43;100827.44;;;29.76;38.21
54870;BME280;40756;-37.950;145.008;2024-02-28T02:50:12;100829.01;;;29.54;38.38
54870;BME280;40756;-37.950;145.008;2024-02-28T02:52:42;100831.59;;;29.57;38.53
54870;BME280;40756;-37.950;145.008;2024-02-28T02:55:11;100833.82;;;29.57;38.77
54870;BME280;40756;-37.950;145.008;2024-02-28T02:57:41;100849.32;;;28.87;38.14
54870;BME280;40756;-37.950;145.008;2024-02-28T03:00:11;100856.42;;;29.39;37.75
54870;BME280;40756;-37.950;145.008;2024-02-28T03:02:40;100855.40;;;29.66;37.05
54870;BME280;40756;-37.950;145.008;2024-02-28T03:05:10;100839.79;;;29.35;37.49
54870;BME280;40756;-37.950;145.008;2024-02-28T03:07:39;100831.27;;;29.83;38.28
54870;BME280;40756;-37.950;145.008;2024-02-28T03:10:09;100825.82;;;29.52;39.40
54870;BME280;40756;-37.950;145.008;2024-02-28T03:12:38;100807.64;;;29.31;39.52
54870;BME280;40756;-37.950;145.008;2024-02-28T03:15:08;100797.91;;;29.13;40.55
54870;BME280;40756;-37.950;145.008;2024-02-28T03:17:38;100784.49;;;29.31;41.06
54870;BME280;40756;-37.950;145.008;2024-02-28T03:20:08;100778.77;;;29.16;41.48
54870;BME280;40756;-37.950;145.008;2024-02-28T03:22:37;100763.63;;;29.15;42.16
54870;BME280;40756;-37.950;145.008;2024-02-28T03:25:08;100712.78;;;28.90;41.95
54870;BME280;40756;-37.950;145.008;2024-02-28T03:27:38;100685.16;;;28.98;41.11
54870;BME280;40756;-37.950;145.008;2024-02-28T03:30:08;100680.26;;;28.96;39.94
54870;BME280;40756;-37.950;145.008;2024-02-28T03:32:37;100673.93;;;29.19;40.15
54870;BME280;40756;-37.950;145.008;2024-02-28T03:35:07;100671.83;;;28.95;39.61
54870;BME280;40756;-37.950;145.008;2024-02-28T03:37:37;100668.82;;;29.14;38.66
54870;BME280;40756;-37.950;145.008;2024-02-28T03:40:07;100664.64;;;29.58;37.45
54870;BME280;40756;-37.950;145.008;2024-02-28T03:42:37;100657.00;;;29.44;36.39
54870;BME280;40756;-37.950;145.008;2024-02-28T03:45:07;100658.19;;;29.66;35.97
54870;BME280;40756;-37.950;145.008;2024-02-28T03:47:36;100665.53;;;29.96;34.82
54870;BME280;40756;-37.950;145.008;2024-02-28T03:50:07;100663.14;;;29.54;35.20
54870;BME280;40756;-37.950;145.008;2024-02-28T03:52:37;100641.96;;;30.23;33.87
54870;BME280;40756;-37.950;145.008;2024-02-28T03:55:06;100624.71;;;30.28;33.78
54870;BME280;40756;-37.950;145.008;2024-02-28T03:57:36;100606.74;;;30.75;33.16
54870;BME280;40756;-37.950;145.008;2024-02-28T04:00:06;100592.91;;;31.04;33.15
54870;BME280;40756;-37.950;145.008;2024-02-28T04:02:36;100576.61;;;30.91;33.14
54870;BME280;40756;-37.950;145.008;2024-02-28T04:05:06;100558.01;;;31.02;30.25
54870;BME280;40756;-37.950;145.008;2024-02-28T04:07:36;100546.30;;;31.52;31.43
54870;BME280;40756;-37.950;145.008;2024-02-28T04:10:08;100539.91;;;31.82;31.01
54870;BME280;40756;-37.950;145.008;2024-02-28T04:12:37;100529.93;;;32.00;29.75
54870;BME280;40756;-37.950;145.008;2024-02-28T04:15:08;100531.36;;;32.48;29.56
54870;BME280;40756;-37.950;145.008;2024-02-28T04:17:37;100508.25;;;32.75;29.48
54870;BME280;40756;-37.950;145.008;2024-02-28T04:20:10;100497.08;;;32.37;29.80
54870;BME280;40756;-37.950;145.008;2024-02-28T04:22:39;100485.11;;;32.76;29.08
54870;BME280;40756;-37.950;145.008;2024-02-28T04:25:10;100476.16;;;32.73;28.70
54870;BME280;40756;-37.950;145.008;2024-02-28T04:27:40;100455.57;;;32.44;26.86
54870;BME280;40756;-37.950;145.008;2024-02-28T04:30:09;100442.67;;;32.86;27.35
54870;BME280;40756;-37.950;145.008;2024-02-28T04:32:39;100433.38;;;33.73;26.43
54870;BME280;40756;-37.950;145.008;2024-02-28T04:35:08;100438.42;;;33.97;26.22
54870;BME280;40756;-37.950;145.008;2024-02-28T04:37:38;100452.73;;;34.32;25.34
54870;BME280;40756;-37.950;145.008;2024-02-28T04:40:08;100456.06;;;34.55;24.84
54870;BME280;40756;-37.950;145.008;2024-02-28T04:42:38;100461.53;;;34.87;24.97
54870;BME280;40756;-37.950;145.008;2024-02-28T04:45:08;100461.21;;;34.72;23.99
54870;BME280;40756;-37.950;145.008;2024-02-28T04:47:38;100451.02;;;35.19;23.95
54870;BME280;40756;-37.950;145.008;2024-02-28T04:50:09;100456.82;;;34.81;23.64
54870;BME280;40756;-37.950;145.008;2024-02-28T04:52:38;100444.64;;;35.54;22.42
54870;BME280;40756;-37.950;145.008;2024-02-28T04:55:08;100441.47;;;35.92;21.96
54870;BME280;40756;-37.950;145.008;2024-02-28T04:57:38;100429.32;;;35.87;22.43
54870;BME280;40756;-37.950;145.008;2024-02-28T05:00:08;100415.36;;;36.30;22.24
54870;BME280;40756;-37.950;145.008;2024-02-28T05:02:38;100404.61;;;36.70;20.88
54870;BME280;40756;-37.950;145.008;2024-02-28T05:05:08;100398.35;;;37.69;20.86
54870;BME280;40756;-37.950;145.008;2024-02-28T05:07:38;100409.95;;;37.30;20.35
54870;BME280;40756;-37.950;145.008;2024-02-28T05:10:08;100410.14;;;37.73;20.33
54870;BME280;40756;-37.950;145.008;2024-02-28T05:12:37;100406.45;;;37.95;19.55
54870;BME280;40756;-37.950;145.008;2024-02-28T05:15:07;100415.36;;;38.02;19.76
54870;BME280;40756;-37.950;145.008;2024-02-28T05:17:37;100385.89;;;37.55;19.48
54870;BME280;40756;-37.950;145.008;2024-02-28T05:20:07;100375.88;;;38.07;20.07
54870;BME280;40756;-37.950;145.008;2024-02-28T05:22:37;100363.32;;;38.24;20.00
54870;BME280;40756;-37.950;145.008;2024-02-28T05:25:07;100362.15;;;38.14;19.40
54870;BME280;40756;-37.950;145.008;2024-02-28T05:27:37;100339.98;;;38.67;17.90
54870;BME280;40756;-37.950;145.008;2024-02-28T05:30:07;100324.65;;;39.25;18.23
54870;BME280;40756;-37.950;145.008;2024-02-28T05:32:37;100314.12;;;39.19;17.74
54870;BME280;40756;-37.950;145.008;2024-02-28T05:35:07;100314.93;;;38.50;18.42
54870;BME280;40756;-37.950;145.008;2024-02-28T05:37:37;100303.15;;;39.10;17.23
54870;BME280;40756;-37.950;145.008;2024-02-28T05:40:08;100288.61;;;38.52;17.45
54870;BME280;40756;-37.950;145.008;2024-02-28T05:42:37;100295.90;;;38.97;17.66
54870;BME280;40756;-37.950;145.008;2024-02-28T05:45:07;100290.94;;;38.87;17.94
54870;BME280;40756;-37.950;145.008;2024-02-28T05:47:37;100288.61;;;37.92;18.28
54870;BME280;40756;-37.950;145.008;2024-02-28T05:50:07;100287.70;;;37.90;17.95
54870;BME280;40756;-37.950;145.008;2024-02-28T05:52:37;100268.35;;;37.78;19.00
54870;BME280;40756;-37.950;145.008;2024-02-28T05:55:07;100257.60;;;38.48;19.34
54870;BME280;40756;-37.950;145.008;2024-02-28T05:57:37;100248.70;;;37.98;19.56
54870;BME280;40756;-37.950;145.008;2024-02-28T06:00:07;100245.48;;;38.38;19.06
54870;BME280;40756;-37.950;145.008;2024-02-28T06:02:37;100242.69;;;38.19;18.76
54870;BME280;40756;-37.950;145.008;2024-02-28T06:05:08;100229.96;;;39.04;18.01
54870;BME280;40756;-37.950;145.008;2024-02-28T06:07:37;100230.96;;;39.38;17.96
54870;BME280;40756;-37.950;145.008;2024-02-28T06:10:08;100223.09;;;39.17;18.14
54870;BME280;40756;-37.950;145.008;2024-02-28T06:12:37;100210.43;;;38.93;17.63
54870;BME280;40756;-37.950;145.008;2024-02-28T06:15:08;100204.85;;;38.92;17.12
54870;BME280;40756;-37.950;145.008;2024-02-28T06:17:37;100201.74;;;38.95;17.46
54870;BME280;40756;-37.950;145.008;2024-02-28T06:20:08;100198.61;;;39.31;17.69
54870;BME280;40756;-37.950;145.008;2024-02-28T06:22:38;100185.13;;;39.49;17.23
54870;BME280;40756;-37.950;145.008;2024-02-28T06:25:08;100187.62;;;39.73;16.65
54870;BME280;40756;-37.950;145.008;2024-02-28T06:27:39;100182.20;;;38.88;17.16
54870;BME280;40756;-37.950;145.008;2024-02-28T06:30:09;100169.96;;;39.48;17.06
54870;BME280;40756;-37.950;145.008;2024-02-28T06:32:39;100153.33;;;39.62;16.82
54870;BME280;40756;-37.950;145.008;2024-02-28T06:35:10;100148.50;;;39.90;16.67
54870;BME280;40756;-37.950;145.008;2024-02-28T06:37:39;100158.30;;;39.65;17.10
54870;BME280;40756;-37.950;145.008;2024-02-28T06:40:09;100145.10;;;40.11;16.60
54870;BME280;40756;-37.950;145.008;2024-02-28T06:42:38;100136.64;;;39.26;15.89
54870;BME280;40756;-37.950;145.008;2024-02-28T06:45:08;100138.35;;;39.26;16.67
54870;BME280;40756;-37.950;145.008;2024-02-28T06:47:38;100128.25;;;39.20;16.31
54870;BME280;40756;-37.950;145.008;2024-02-28T06:50:08;100119.14;;;39.51;16.57
54870;BME280;40756;-37.950;145.008;2024-02-28T06:52:37;100114.83;;;39.51;16.05
54870;BME280;40756;-37.950;145.008;2024-02-28T06:55:07;100110.94;;;39.14;16.67
54870;BME280;40756;-37.950;145.008;2024-02-28T06:57:37;100104.68;;;38.63;16.40
54870;BME280;40756;-37.950;145.008;2024-02-28T07:00:09;100102.13;;;39.38;15.33
54870;BME280;40756;-37.950;145.008;2024-02-28T07:02:38;100094.97;;;38.95;16.13
54870;BME280;40756;-37.950;145.008;2024-02-28T07:05:08;100085.92;;;38.44;16.09
54870;BME280;40756;-37.950;145.008;2024-02-28T07:07:37;100092.57;;;39.09;15.44
54870;BME280;40756;-37.950;145.008;2024-02-28T07:10:07;100079.91;;;37.69;15.99
54870;BME280;40756;-37.950;145.008;2024-02-28T07:12:37;100084.47;;;38.38;15.84
54870;BME280;40756;-37.950;145.008;2024-02-28T07:15:06;100082.22;;;37.98;16.55
54870;BME280;40756;-37.950;145.008;2024-02-28T07:17:36;100077.82;;;38.79;16.06
54870;BME280;40756;-37.950;145.008;2024-02-28T07:20:06;100077.32;;;38.92;16.04
54870;BME280;40756;-37.950;145.008;2024-02-28T07:22:35;100083.22;;;38.74;16.38
54870;BME280;40756;-37.950;145.008;2024-02-28T07:25:05;100063.56;;;37.22;16.72
54870;BME280;40756;-37.950;145.008;2024-02-28T07:27:34;100074.98;;;36.77;17.53
54870;BME280;40756;-37.950;145.008;2024-02-28T07:30:05;100072.86;;;36.60;17.02
54870;BME280;40756;-37.950;145.008;2024-02-28T07:32:34;100068.73;;;37.52;16.83
54870;BME280;40756;-37.950;145.008;2024-02-28T07:35:04;100069.90;;;36.32;17.45
54870;BME280;40756;-37.950;145.008;2024-02-28T07:37:33;100062.11;;;37.48;17.21
54870;BME280;40756;-37.950;145.008;2024-02-28T07:40:03;100066.97;;;37.53;16.63
54870;BME280;40756;-37.950;145.008;2024-02-28T07:42:32;100045.02;;;37.07;15.96
54870;BME280;40756;-37.950;145.008;2024-02-28T07:45:01;100055.24;;;37.66;16.20
54870;BME280;40756;-37.950;145.008;2024-02-28T07:47:30;100051.43;;;37.66;15.85
54870;BME280;40756;-37.950;145.008;2024-02-28T07:50:00;100049.61;;;37.66;15.60
54870;BME280;40756;-37.950;145.008;2024-02-28T07:52:29;100040.48;;;37.73;15.87
54870;BME280;40756;-37.950;145.008;2024-02-28T07:54:58;100028.46;;;37.12;15.54
54870;BME280;40756;-37.950;145.008;2024-02-28T07:57:27;100037.78;;;37.52;15.04
54870;BME280;40756;-37.950;145.008;2024-02-28T07:59:57;100029.07;;;37.26;15.17
54870;BME280;40756;-37.950;145.008;2024-02-28T08:02:26;100036.81;;;37.52;15.17
54870;BME280;40756;-37.950;145.008;2024-02-28T08:04:57;100038.10;;;37.04;15.26
54870;BME280;40756;-37.950;145.008;2024-02-28T08:07:26;100033.72;;;37.52;15.37
54870;BME280;40756;-37.950;145.008;2024-02-28T08:09:56;100047.18;;;37.12;15.59
54870;BME280;40756;-37.950;145.008;2024-02-28T08:12:25;100046.34;;;36.67;15.55
54870;BME280;40756;-37.950;145.008;2024-02-28T08:14:54;100038.28;;;36.67;15.54
54870;BME280;40756;-37.950;145.008;2024-02-28T08:17:23;100041.26;;;36.98;15.97
54870;BME280;40756;-37.950;145.008;2024-02-28T08:19:52;100044.52;;;36.50;15.64
54870;BME280;40756;-37.950;145.008;2024-02-28T08:22:21;100048.32;;;36.97;15.96
54870;BME280;40756;-37.950;145.008;2024-02-28T08:24:53;100053.94;;;36.45;15.51
54870;BME280;40756;-37.950;145.008;2024-02-28T08:27:23;100061.97;;;36.36;16.02
54870;BME280;40756;-37.950;145.008;2024-02-28T08:29:52;100055.98;;;36.72;16.03
54870;BME280;40756;-37.950;145.008;2024-02-28T08:32:22;100063.81;;;36.82;16.29
54870;BME280;40756;-37.950;145.008;2024-02-28T08:34:52;100059.61;;;36.24;15.45
54870;BME280;40756;-37.950;145.008;2024-02-28T08:37:21;100064.72;;;36.41;15.31
54870;BME280;40756;-37.950;145.008;2024-02-28T08:39:50;100060.66;;;36.08;15.18
54870;BME280;40756;-37.950;145.008;2024-02-28T08:42:19;100062.39;;;36.44;15.40
54870;BME280;40756;-37.950;145.008;2024-02-28T08:44:48;100061.73;;;36.09;14.82
54870;BME280;40756;-37.950;145.008;2024-02-28T08:47:17;100063.96;;;36.17;14.88
54870;BME280;40756;-37.950;145.008;2024-02-28T08:49:47;100065.82;;;36.00;14.47
54870;BME280;40756;-37.950;145.008;2024-02-28T08:52:21;100064.00;;;36.06;14.25
54870;BME280;40756;-37.950;145.008;2024-02-28T08:54:50;100065.55;;;36.51;14.29
54870;BME280;40756;-37.950;145.008;2024-02-28T08:57:19;100075.23;;;35.98;14.07
54870;BME280;40756;-37.950;145.008;2024-02-28T08:59:49;100073.83;;;35.90;14.44
54870;BME280;40756;-37.950;145.008;2024-02-28T09:02:18;100077.37;;;35.86;14.48
54870;BME280;40756;-37.950;145.008;2024-02-28T09:04:47;100070.53;;;35.94;14.72
54870;BME280;40756;-37.950;145.008;2024-02-28T09:07:21;100071.58;;;35.93;14.64
54870;BME280;40756;-37.950;145.008;2024-02-28T09:09:51;100070.89;;;35.47;14.78
54870;BME280;40756;-37.950;145.008;2024-02-28T09:12:20;100061.79;;;35.61;14.92
54870;BME280;40756;-37.950;145.008;2024-02-28T09:14:49;100064.06;;;35.41;15.21
54870;BME280;40756;-37.950;145.008;2024-02-28T09:17:19;100065.13;;;35.57;15.10
54870;BME280;40756;-37.950;145.008;2024-02-28T09:19:48;100071.37;;;35.64;15.48
54870;BME280;40756;-37.950;145.008;2024-02-28T09:22:17;100067.78;;;35.44;15.29
54870;BME280;40756;-37.950;145.008;2024-02-28T09:24:47;100063.26;;;35.35;15.76
54870;BME280;40756;-37.950;145.008;2024-02-28T09:27:16;100063.68;;;35.23;15.45
54870;BME280;40756;-37.950;145.008;2024-02-28T09:29:45;100063.76;;;35.63;15.51
54870;BME280;40756;-37.950;145.008;2024-02-28T09:32:15;100064.37;;;35.79;15.81
54870;BME280;40756;-37.950;145.008;2024-02-28T09:34:45;100072.81;;;34.99;15.96
54870;BME280;40756;-37.950;145.008;2024-02-28T09:37:15;100068.98;;;35.57;15.67
54870;BME280;40756;-37.950;145.008;2024-02-28T09:39:45;100072.50;;;35.42;16.53
54870;BME280;40756;-37.950;145.008;2024-02-28T09:42:15;100071.93;;;35.24;16.00
54870;BME280;40756;-37.950;145.008;2024-02-28T09:44:44;100076.97;;;35.27;16.34
54870;BME280;40756;-37.950;145.008;2024-02-28T09:47:15;100076.18;;;35.39;16.18
54870;BME280;40756;-37.950;145.008;2024-02-28T09:49:47;100077.61;;;35.41;16.05
54870;BME280;40756;-37.950;145.008;2024-02-28T09:52:19;100077.55;;;35.61;16.33
54870;BME280;40756;-37.950;145.008;2024-02-28T09:54:49;100082.86;;;34.92;16.38
54870;BME280;40756;-37.950;145.008;2024-02-28T09:57:18;100086.50;;;35.18;16.52
54870;BME280;40756;-37.950;145.008;2024-02-28T09:59:48;100088.77;;;34.69;16.34
54870;BME280;40756;-37.950;145.008;2024-02-28T10:02:20;100097.07;;;35.36;16.48
54870;BME280;40756;-37.950;145.008;2024-02-28T10:04:50;100129.47;;;35.41;16.51
54870;BME280;40756;-37.950;145.008;2024-02-28T10:07:21;100172.55;;;35.01;16.79
54870;BME280;40756;-37.950;145.008;2024-02-28T10:09:51;100231.40;;;34.33;17.26
54870;BME280;40756;-37.950;145.008;2024-02-28T10:12:21;100268.82;;;32.74;23.70
54870;BME280;40756;-37.950;145.008;2024-02-28T10:14:51;100284.36;;;31.37;26.43
54870;BME280;40756;-37.950;145.008;2024-02-28T10:17:20;100276.95;;;30.97;28.39
54870;BME280;40756;-37.950;145.008;2024-02-28T10:19:52;100289.63;;;29.65;30.56
54870;BME280;40756;-37.950;145.008;2024-02-28T10:22:22;100281.43;;;27.83;34.89
54870;BME280;40756;-37.950;145.008;2024-02-28T10:24:58;100313.72;;;26.70;35.88
54870;BME280;40756;-37.950;145.008;2024-02-28T10:27:28;100333.07;;;26.66;37.95
54870;BME280;40756;-37.950;145.008;2024-02-28T10:29:57;100336.70;;;25.66;41.32
54870;BME280;40756;-37.950;145.008;2024-02-28T10:32:26;100342.90;;;25.09;43.06
54870;BME280;40756;-37.950;145.008;2024-02-28T10:34:56;100375.71;;;25.18;44.44
54870;BME280;40756;-37.950;145.008;2024-02-28T10:37:27;100391.27;;;25.58;44.17
54870;BME280;40756;-37.950;145.008;2024-02-28T10:39:58;100386.42;;;25.21;44.86
54870;BME280;40756;-37.950;145.008;2024-02-28T10:42:31;100375.25;;;25.12;45.88
54870;BME280;40756;-37.950;145.008;2024-02-28T10:45:03;100379.57;;;23.69;48.40
54870;BME280;40756;-37.950;145.008;2024-02-28T10:47:33;100379.20;;;23.94;48.96
54870;BME280;40756;-37.950;145.008;2024-02-28T10:50:03;100375.50;;;24.11;49.22
54870;BME280;40756;-37.950;145.008;2024-02-28T10:52:34;100378.93;;;24.46;46.59
54870;BME280;40756;-37.950;145.008;2024-02-28T10:55:10;100375.63;;;23.52;49.58
54870;BME280;40756;-37.950;145.008;2024-02-28T10:57:40;100399.54;;;23.79;50.78
54870;BME280;40756;-37.950;145.008;2024-02-28T11:00:17;100396.97;;;23.38;51.56
54870;BME280;40756;-37.950;145.008;2024-02-28T11:02:57;100405.27;;;23.38;52.11
54870;BME280;40756;-37.950;145.008;2024-02-28T11:05:37;100406.64;;;23.94;52.78
54870;BME280;40756;-37.950;145.008;2024-02-28T11:08:08;100421.35;;;23.68;52.63
54870;BME280;40756;-37.950;145.008;2024-02-28T11:10:53;100420.47;;;23.42;53.06
54870;BME280;40756;-37.950;145.008;2024-02-28T11:13:25;100434.57;;;23.91;51.36
54870;BME280;40756;-37.950;145.008;2024-02-28T11:15:54;100446.96;;;23.43;52.41
54870;BME280;40756;-37.950;145.008;2024-02-28T11:18:24;100451.31;;;23.74;52.04
54870;BME280;40756;-37.950;145.008;2024-02-28T11:20:54;100454.46;;;24.01;51.39
54870;BME280;40756;-37.950;145.008;2024-02-28T11:23:23;100463.10;;;23.80;50.99
54870;BME280;40756;-37.950;145.008;2024-02-28T11:25:53;100462.98;;;23.21;52.19
54870;BME280;40756;-37.950;145.008;2024-02-28T11:28:22;100470.18;;;23.62;50.92
54870;BME280;40756;-37.950;145.008;2024-02-28T11:30:52;100483.77;;;23.28;52.08
54870;BME280;40756;-37.950;145.008;2024-02-28T11:33:21;100492.36;;;24.37;50.69
54870;BME280;40756;-37.950;145.008;2024-02-28T11:35:56;100501.69;;;23.93;50.49
54870;BME280;40756;-37.950;145.008;2024-02-28T11:38:26;100509.50;;;23.35;51.88
54870;BME280;40756;-37.950;145.008;2024-02-28T11:40:56;100511.47;;;22.83;54.12
54870;BME280;40756;-37.950;145.008;2024-02-28T11:43:25;100512.14;;;23.61;52.19
54870;BME280;40756;-37.950;145.008;2024-02-28T11:45:56;100514.31;;;24.12;51.32
54870;BME280;40756;-37.950;145.008;2024-02-28T11:48:26;100517.37;;;23.73;51.29
54870;BME280;40756;-37.950;145.008;2024-02-28T11:50:56;100518.84;;;23.20;52.65
54870;BME280;40756;-37.950;145.008;2024-02-28T11:53:26;100519.44;;;23.87;51.48
54870;BME280;40756;-37.950;145.008;2024-02-28T11:55:56;100520.74;;;23.75;52.19
54870;BME280;40756;-37.950;145.008;2024-02-28T11:58:25;100527.88;;;23.38;52.57
54870;BME280;40756;-37.950;145.008;2024-02-28T12:00:55;100527.70;;;24.12;51.72
54870;BME280;40756;-37.950;145.008;2024-02-28T12:03:25;100529.15;;;23.19;53.24
54870;BME280;40756;-37.950;145.008;2024-02-28T12:05:56;100529.32;;;23.42;52.95
54870;BME280;40756;-37.950;145.008;2024-02-28T12:08:25;100538.26;;;23.18;53.46
54870;BME280;40756;-37.950;145.008;2024-02-28T12:10:54;100543.21;;;22.61;54.88
54870;BME280;40756;-37.950;145.008;2024-02-28T12:13:24;100546.46;;;22.74;55.08
54870;BME280;40756;-37.950;145.008;2024-02-28T12:15:54;100541.04;;;22.73;54.51
54870;BME280;40756;-37.950;145.008;2024-02-28T12:18:25;100543.24;;;23.08;54.27
54870;BME280;40756;-37.950;145.008;2024-02-28T12:20:55;100547.64;;;23.01;53.83
54870;BME280;40756;-37.950;145.008;2024-02-28T12:23:25;100550.98;;;22.61;54.93
54870;BME280;40756;-37.950;145.008;2024-02-28T12:25:55;100550.31;;;23.33;54.74
54870;BME280;40756;-37.950;145.008;2024-02-28T12:28:24;100552.38;;;22.59;56.07
54870;BME280;40756;-37.950;145.008;2024-02-28T12:30:54;100552.80;;;23.02;54.77
54870;BME280;40756;-37.950;145.008;2024-02-28T12:33:23;100560.68;;;22.47;55.26